createdAt,value
2023-01-20T00:00:41.081Z,9.358548
2023-01-20T00:01:41.109Z,9.358521
2023-01-20T00:02:41.156Z,9.358499
2023-01-20T00:03:41.097Z,9.358451
2023-01-20T00:04:41.065Z,9.358466
2023-01-20T00:05:41.028Z,9.358496
2023-01-20T00:06:41.009Z,9.358567
2023-01-20T00:07:40.965Z,9.358598
2023-01-20T00:08:40.963Z,9.358556
2023-01-20T00:09:40.987Z,9.358518
2023-01-20T00:10:40.954Z,9.358461
2023-01-20T00:11:40.954Z,9.358443
2023-01-20T00:12:40.951Z,9.358468
2023-01-20T00:13:40.901Z,9.358555
2023-01-20T00:14:40.903Z,9.358485
2023-01-20T00:15:40.963Z,9.358457
2023-01-20T00:16:40.905Z,9.358478
2023-01-20T00:17:40.859Z,9.358455
2023-01-20T00:18:40.893Z,9.358389
2023-01-20T00:19:40.845Z,9.358422
2023-01-20T00:20:40.844Z,9.358496
2023-01-20T00:21:40.848Z,9.358570
2023-01-20T00:22:40.831Z,9.358505
2023-01-20T00:23:40.790Z,9.358562
2023-01-20T00:24:40.833Z,9.358521
2023-01-20T00:25:40.825Z,9.358560
2023-01-20T00:26:40.758Z,9.358531
2023-01-20T00:27:40.781Z,9.358502
2023-01-20T00:28:40.774Z,9.358532
2023-01-20T00:29:40.735Z,9.358529
2023-01-20T00:30:40.744Z,9.358575
2023-01-20T00:31:40.798Z,9.358594
2023-01-20T00:32:40.730Z,9.358603
2023-01-20T00:33:40.686Z,9.358601
2023-01-20T00:34:40.723Z,9.358602
2023-01-20T00:35:40.709Z,9.358609
2023-01-20T00:36:40.688Z,9.358671
2023-01-20T00:37:40.640Z,9.358578
2023-01-20T00:38:40.654Z,9.358563
2023-01-20T00:39:40.651Z,9.358526
2023-01-20T00:40:40.640Z,9.358612
2023-01-20T00:41:40.621Z,9.358628
2023-01-20T00:42:40.621Z,9.358599
2023-01-20T00:43:40.588Z,9.358577
2023-01-20T00:44:40.585Z,9.358563
2023-01-20T00:45:40.581Z,9.358534
2023-01-20T00:46:40.587Z,9.358568
2023-01-20T00:47:40.541Z,9.358539
2023-01-20T00:48:41.560Z,9.358526
2023-01-20T00:49:40.540Z,9.358537
2023-01-20T00:50:40.531Z,9.358479
2023-01-20T00:51:40.520Z,9.358459
2023-01-20T00:52:40.499Z,9.358464
2023-01-20T00:53:40.477Z,9.358480
2023-01-20T00:54:40.477Z,9.358521
2023-01-20T00:55:40.497Z,9.358551
2023-01-20T00:56:40.473Z,9.358541
2023-01-20T00:57:40.448Z,9.358612
2023-01-20T00:58:40.440Z,9.358614
2023-01-20T00:59:40.415Z,9.358582
2023-01-20T01:00:40.412Z,9.358590
2023-01-20T01:01:40.531Z,9.358562
2023-01-20T01:02:40.479Z,9.358538
2023-01-20T01:03:40.375Z,9.358498
2023-01-20T01:04:40.372Z,9.358510
2023-01-20T01:05:40.368Z,9.358546
2023-01-20T01:06:40.360Z,9.358581
2023-01-20T01:07:40.322Z,9.358543
2023-01-20T01:08:40.313Z,9.358603
2023-01-20T01:09:40.339Z,9.358625
2023-01-20T01:10:40.326Z,9.358616
2023-01-20T01:11:40.267Z,9.358626
2023-01-20T01:12:40.284Z,9.358639
2023-01-20T01:13:40.291Z,9.358649
2023-01-20T01:14:40.247Z,9.358636
2023-01-20T01:15:40.266Z,9.358670
2023-01-20T01:16:40.242Z,9.358551
2023-01-20T01:17:40.200Z,9.358563
2023-01-20T01:18:40.237Z,9.358614
2023-01-20T01:19:40.214Z,9.358600
2023-01-20T01:20:40.195Z,9.358626
2023-01-20T01:21:40.157Z,9.358607
2023-01-20T01:22:40.184Z,9.358624
2023-01-20T01:23:40.147Z,9.358562
2023-01-20T01:24:40.184Z,9.358559
2023-01-20T01:25:40.160Z,9.358518
2023-01-20T01:26:40.143Z,9.358543
2023-01-20T01:27:40.115Z,9.358591
2023-01-20T01:28:40.114Z,9.358582
2023-01-20T01:29:40.112Z,9.358572
2023-01-20T01:30:40.175Z,9.358619
2023-01-20T01:31:40.143Z,9.358644
2023-01-20T01:32:40.069Z,9.358602
2023-01-20T01:33:40.060Z,9.358597
2023-01-20T01:34:40.050Z,9.358427
2023-01-20T01:35:40.076Z,9.358479
2023-01-20T01:36:40.037Z,9.358477
2023-01-20T01:37:40.019Z,9.358575
2023-01-20T01:38:40.040Z,9.358567
2023-01-20T01:39:39.969Z,9.358544
2023-01-20T01:40:39.987Z,9.358619
2023-01-20T01:41:40.007Z,9.358583
2023-01-20T01:42:42.002Z,9.358517
2023-01-20T01:43:39.933Z,9.358501
2023-01-20T01:44:39.931Z,9.358541
2023-01-20T01:45:40.001Z,9.358582
2023-01-20T01:46:39.910Z,9.358494
2023-01-20T01:47:39.925Z,9.358519
2023-01-20T01:48:39.936Z,9.358503
2023-01-20T01:49:39.862Z,9.358452
2023-01-20T01:50:39.864Z,9.358493
2023-01-20T01:51:39.921Z,9.358486
2023-01-20T01:52:39.858Z,9.358449
2023-01-20T01:53:39.876Z,9.358466
2023-01-20T01:54:39.865Z,9.358551
2023-01-20T01:55:39.802Z,9.358519
2023-01-20T01:56:39.819Z,9.358450
2023-01-20T01:57:39.847Z,9.358442
2023-01-20T01:58:39.792Z,9.358475
2023-01-20T01:59:39.774Z,9.358468
2023-01-20T02:00:39.817Z,9.358520
2023-01-20T02:01:39.829Z,9.358520
2023-01-20T02:02:39.783Z,9.358520
2023-01-20T02:03:39.764Z,9.358515
2023-01-20T02:04:39.755Z,9.358473
2023-01-20T02:05:39.711Z,9.358534
2023-01-20T02:06:39.698Z,9.358534
2023-01-20T02:07:39.722Z,9.358618
2023-01-20T02:08:39.681Z,9.358595
2023-01-20T02:09:39.656Z,9.358542
2023-01-20T02:10:39.679Z,9.358547
2023-01-20T02:11:39.663Z,9.358561
2023-01-20T02:12:39.644Z,9.358547
2023-01-20T02:13:39.633Z,9.358601
2023-01-20T02:14:39.616Z,9.358649
2023-01-20T02:15:39.638Z,9.358649
2023-01-20T02:16:39.647Z,9.358602
2023-01-20T02:17:39.577Z,9.358649
2023-01-20T02:18:39.592Z,9.358556
2023-01-20T02:19:39.563Z,9.358547
2023-01-20T02:20:39.564Z,9.358559
2023-01-20T02:21:39.552Z,9.358597
2023-01-20T02:22:39.555Z,9.358611
2023-01-20T02:23:39.511Z,9.358645
2023-01-20T02:24:39.508Z,9.358582
2023-01-20T02:25:39.541Z,9.358592
2023-01-20T02:26:39.482Z,9.358602
2023-01-20T02:27:39.489Z,9.358570
2023-01-20T02:28:39.491Z,9.358535
2023-01-20T02:29:39.437Z,9.358568
2023-01-20T02:30:39.499Z,9.358567
2023-01-20T02:31:39.636Z,9.358580
2023-01-20T02:32:39.425Z,9.358547
2023-01-20T02:33:39.410Z,9.358577
2023-01-20T02:34:39.449Z,9.358587
2023-01-20T02:35:39.375Z,9.358535
2023-01-20T02:36:39.423Z,9.358549
2023-01-20T02:37:39.408Z,9.358541
2023-01-20T02:38:39.363Z,9.358487
2023-01-20T02:39:39.343Z,9.358521
2023-01-20T02:40:39.363Z,9.358472
2023-01-20T02:41:39.353Z,9.358512
2023-01-20T02:42:39.330Z,9.358508
2023-01-20T02:43:39.315Z,9.358480
2023-01-20T02:44:39.309Z,9.358508
2023-01-20T02:45:39.319Z,9.358563
2023-01-20T02:46:39.309Z,9.358568
2023-01-20T02:47:39.247Z,9.358522
2023-01-20T02:48:39.247Z,9.358488
2023-01-20T02:49:39.271Z,9.358528
2023-01-20T02:50:39.230Z,9.358509
2023-01-20T02:51:39.232Z,9.358499
2023-01-20T02:52:39.212Z,9.358518
2023-01-20T02:53:39.198Z,9.358562
2023-01-20T02:54:39.191Z,9.358437
2023-01-20T02:55:39.190Z,9.358528
2023-01-20T02:56:39.188Z,9.358602
2023-01-20T02:57:39.142Z,9.358601
2023-01-20T02:58:39.162Z,9.358590
2023-01-20T02:59:39.146Z,9.358628
2023-01-20T03:00:39.116Z,9.358647
2023-01-20T03:01:39.176Z,9.358602
2023-01-20T03:02:39.128Z,9.358675
2023-01-20T03:03:39.090Z,9.358659
2023-01-20T03:04:39.109Z,9.358619
2023-01-20T03:05:39.172Z,9.358665
2023-01-20T03:06:39.045Z,9.358599
2023-01-20T03:07:39.074Z,9.358536
2023-01-20T03:08:39.046Z,9.358540
2023-01-20T03:09:39.012Z,9.358624
2023-01-20T03:10:39.017Z,9.358616
2023-01-20T03:11:39.057Z,9.358585
2023-01-20T03:12:39.003Z,9.358648
2023-01-20T03:13:38.982Z,9.358732
2023-01-20T03:14:38.979Z,9.358737
2023-01-20T03:15:39.998Z,9.358647
2023-01-20T03:16:39.021Z,9.358613
2023-01-20T03:17:38.956Z,9.358624
2023-01-20T03:18:38.937Z,9.358525
2023-01-20T03:19:38.939Z,9.358551
2023-01-20T03:20:38.927Z,9.358628
2023-01-20T03:21:38.920Z,9.358628
2023-01-20T03:22:38.902Z,9.358629
2023-01-20T03:23:38.879Z,9.358598
2023-01-20T03:24:38.868Z,9.358539
2023-01-20T03:25:38.875Z,9.358533
2023-01-20T03:26:38.904Z,9.358606
2023-01-20T03:27:38.829Z,9.358593
2023-01-20T03:28:38.824Z,9.358516
2023-01-20T03:29:38.871Z,9.358549
2023-01-20T03:30:38.869Z,9.358587
2023-01-20T03:31:38.923Z,9.358542
2023-01-20T03:32:38.794Z,9.358553
2023-01-20T03:33:38.764Z,9.358597
2023-01-20T03:34:38.759Z,9.358618
2023-01-20T03:35:38.780Z,9.358647
2023-01-20T03:36:38.762Z,9.358685
2023-01-20T03:37:38.726Z,9.358686
2023-01-20T03:38:38.773Z,9.358618
2023-01-20T03:39:38.691Z,9.358624
2023-01-20T03:40:38.691Z,9.358700
2023-01-20T03:41:38.749Z,9.358676
2023-01-20T03:42:38.691Z,9.358602
2023-01-20T03:43:38.649Z,9.358459
2023-01-20T03:44:38.666Z,9.358444
2023-01-20T03:45:38.690Z,9.358442
2023-01-20T03:46:38.640Z,9.358455
2023-01-20T03:47:38.645Z,9.358452
2023-01-20T03:48:38.631Z,9.358546
2023-01-20T03:49:38.577Z,9.358597
2023-01-20T03:50:38.587Z,9.358562
2023-01-20T03:51:38.637Z,9.358558
2023-01-20T03:52:47.047Z,9.358511
2023-01-20T03:53:39.540Z,9.358632
2023-01-20T03:54:38.593Z,9.358628
2023-01-20T03:55:38.536Z,9.358640
2023-01-20T03:56:38.518Z,9.358618
2023-01-20T03:57:38.566Z,9.358580
2023-01-20T03:58:38.497Z,9.358562
2023-01-20T03:59:38.474Z,9.358454
2023-01-20T04:00:38.511Z,9.358438
2023-01-20T04:01:38.607Z,9.358476
2023-01-20T04:02:38.461Z,9.358450
2023-01-20T04:03:38.495Z,9.358425
2023-01-20T04:04:38.451Z,9.358498
2023-01-20T04:05:38.418Z,9.358464
2023-01-20T04:06:38.435Z,9.358534
2023-01-20T04:07:38.425Z,9.358564
2023-01-20T04:08:38.399Z,9.358569
2023-01-20T04:09:38.395Z,9.358494
2023-01-20T04:10:38.393Z,9.358634
2023-01-20T04:11:38.362Z,9.358493
2023-01-20T04:12:38.379Z,9.358592
2023-01-20T04:13:38.364Z,9.358669
2023-01-20T04:14:38.345Z,9.358526
2023-01-20T04:15:38.387Z,9.358554
2023-01-20T04:16:38.311Z,9.358718
2023-01-20T04:17:38.316Z,9.358659
2023-01-20T04:18:38.325Z,9.358564
2023-01-20T04:19:38.267Z,9.358636
2023-01-20T04:20:38.260Z,9.358506
2023-01-20T04:21:38.282Z,9.358549
2023-01-20T04:22:38.274Z,9.358500
2023-01-20T04:23:38.215Z,9.358542
2023-01-20T04:24:38.235Z,9.358593
2023-01-20T04:25:38.231Z,9.358665
2023-01-20T04:26:38.184Z,9.358682
2023-01-20T04:27:38.225Z,9.358640
2023-01-20T04:28:38.197Z,9.358616
2023-01-20T04:29:38.163Z,9.358673
2023-01-20T04:30:38.192Z,9.358719
2023-01-20T04:31:38.284Z,9.358593
2023-01-20T04:32:38.159Z,9.358554
2023-01-20T04:33:38.113Z,9.358611
2023-01-20T04:34:38.144Z,9.358486
2023-01-20T04:35:38.080Z,9.358562
2023-01-20T04:36:39.086Z,9.358702
2023-01-20T04:37:38.130Z,9.358878
2023-01-20T04:38:38.078Z,9.358817
2023-01-20T04:39:38.046Z,9.358656
2023-01-20T04:40:38.100Z,9.358526
2023-01-20T04:41:38.048Z,9.358522
2023-01-20T04:42:38.032Z,9.358507
2023-01-20T04:43:38.032Z,9.358528
2023-01-20T04:44:38.035Z,9.358589
2023-01-20T04:45:37.982Z,9.358607
2023-01-20T04:46:38.062Z,9.358539
2023-01-20T04:47:37.996Z,9.358572
2023-01-20T04:48:37.986Z,9.358596
2023-01-20T04:49:37.938Z,9.358546
2023-01-20T04:50:37.940Z,9.358487
2023-01-20T04:51:37.994Z,9.358556
2023-01-20T04:52:37.928Z,9.358535
2023-01-20T04:53:37.917Z,9.358532
2023-01-20T04:54:37.908Z,9.358569
2023-01-20T04:55:37.907Z,9.358541
2023-01-20T04:56:37.879Z,9.358513
2023-01-20T04:57:37.870Z,9.358514
2023-01-20T04:58:37.889Z,9.358488
2023-01-20T04:59:37.839Z,9.358478
2023-01-20T05:00:37.852Z,9.358483
2023-01-20T05:01:37.881Z,9.358544
2023-01-20T05:02:37.829Z,9.358517
2023-01-20T05:03:37.817Z,9.358527
2023-01-20T05:04:37.800Z,9.358534
2023-01-20T05:05:37.795Z,9.358492
2023-01-20T05:06:37.757Z,9.358430
2023-01-20T05:07:37.808Z,9.358490
2023-01-20T05:08:37.761Z,9.358521
2023-01-20T05:09:37.726Z,9.358576
2023-01-20T05:10:37.746Z,9.358517
2023-01-20T05:11:37.728Z,9.358509
2023-01-20T05:12:37.720Z,9.358523
2023-01-20T05:13:37.723Z,9.358573
2023-01-20T05:14:37.696Z,9.358615
2023-01-20T05:15:37.672Z,9.358597
2023-01-20T05:16:37.678Z,9.358601
2023-01-20T05:17:37.680Z,9.358636
2023-01-20T05:18:37.658Z,9.358611
2023-01-20T05:19:37.642Z,9.358534
2023-01-20T05:20:37.617Z,9.358588
2023-01-20T05:21:37.648Z,9.358622
2023-01-20T05:22:37.597Z,9.358550
2023-01-20T05:23:37.562Z,9.358580
2023-01-20T05:24:37.574Z,9.358612
2023-01-20T05:25:37.612Z,9.358597
2023-01-20T05:26:37.568Z,9.358554
2023-01-20T05:27:37.521Z,9.358493
2023-01-20T05:28:37.545Z,9.358490
2023-01-20T05:29:37.570Z,9.358613
2023-01-20T05:30:37.522Z,9.358626
2023-01-20T05:31:37.582Z,9.358549
2023-01-20T05:32:37.489Z,9.358584
2023-01-20T05:33:37.501Z,9.358604
2023-01-20T05:34:37.475Z,9.358568
2023-01-20T05:35:37.477Z,9.358576
2023-01-20T05:36:37.462Z,9.358598
2023-01-20T05:37:37.420Z,9.358547
2023-01-20T05:38:37.462Z,9.358561
2023-01-20T05:39:37.440Z,9.358564
2023-01-20T05:40:37.400Z,9.358561
2023-01-20T05:41:37.424Z,9.358557
2023-01-20T05:42:37.430Z,9.358594
2023-01-20T05:43:37.368Z,9.358563
2023-01-20T05:44:37.378Z,9.358579
2023-01-20T05:45:37.383Z,9.358562
2023-01-20T05:46:37.421Z,9.358558
2023-01-20T05:47:37.355Z,9.358556
2023-01-20T05:48:37.343Z,9.358578
2023-01-20T05:49:37.324Z,9.358583
2023-01-20T05:50:37.301Z,9.358571
2023-01-20T05:51:37.333Z,9.358556
2023-01-20T05:52:37.295Z,9.358556
2023-01-20T05:53:37.291Z,9.358602
2023-01-20T05:54:37.259Z,9.358607
2023-01-20T05:55:37.276Z,9.358623
2023-01-20T05:56:37.240Z,9.358618
2023-01-20T05:57:37.254Z,9.358597
2023-01-20T05:58:37.257Z,9.358632
2023-01-20T05:59:37.195Z,9.358562
2023-01-20T06:00:37.214Z,9.358518
2023-01-20T06:01:37.354Z,9.358517
2023-01-20T06:02:37.228Z,9.358533
2023-01-20T06:03:37.205Z,9.358618
2023-01-20T06:04:37.168Z,9.358621
2023-01-20T06:05:37.128Z,9.358564
2023-01-20T06:06:37.134Z,9.358548
2023-01-20T06:07:37.171Z,9.358586
2023-01-20T06:08:37.122Z,9.358590
2023-01-20T06:09:37.100Z,9.358617
2023-01-20T06:10:37.124Z,9.358563
2023-01-20T06:11:37.077Z,9.358566
2023-01-20T06:12:37.080Z,9.358594
2023-01-20T06:13:37.120Z,9.358620
2023-01-20T06:14:37.063Z,9.358589
2023-01-20T06:15:37.035Z,9.358598
2023-01-20T06:16:37.036Z,9.358571
2023-01-20T06:17:37.051Z,9.358524
2023-01-20T06:18:37.000Z,9.358630
2023-01-20T06:19:37.027Z,9.358625
2023-01-20T06:20:36.996Z,9.358554
2023-01-20T06:21:36.964Z,9.358511
2023-01-20T06:22:36.982Z,9.358595
2023-01-20T06:23:37.033Z,9.358555
2023-01-20T06:24:36.992Z,9.358573
2023-01-20T06:25:36.951Z,9.358618
2023-01-20T06:26:36.937Z,9.358519
2023-01-20T06:27:36.947Z,9.358570
2023-01-20T06:28:36.962Z,9.358639
2023-01-20T06:29:36.899Z,9.358682
2023-01-20T06:30:36.899Z,9.358587
2023-01-20T06:31:36.940Z,9.358636
2023-01-20T06:32:36.863Z,9.358597
2023-01-20T06:33:36.854Z,9.358603
2023-01-20T06:34:36.902Z,9.358597
2023-01-20T06:35:36.820Z,9.358613
2023-01-20T06:36:36.819Z,9.358616
2023-01-20T06:37:36.873Z,9.358541
2023-01-20T06:38:36.799Z,9.358524
2023-01-20T06:39:36.771Z,9.358553
2023-01-20T06:40:37.828Z,9.358503
2023-01-20T06:41:36.801Z,9.358556
2023-01-20T06:42:36.735Z,9.358595
2023-01-20T06:43:36.775Z,9.358651
2023-01-20T06:44:36.747Z,9.358664
2023-01-20T06:45:36.713Z,9.358686
2023-01-20T06:46:37.779Z,9.358663
2023-01-20T06:47:36.716Z,9.358614
2023-01-20T06:48:36.701Z,9.358603
2023-01-20T06:49:36.692Z,9.358599
2023-01-20T06:50:36.700Z,9.358603
2023-01-20T06:51:36.655Z,9.358543
2023-01-20T06:52:36.669Z,9.358570
2023-01-20T06:53:36.689Z,9.358580
2023-01-20T06:54:36.635Z,9.358607
2023-01-20T06:55:36.608Z,9.358571
2023-01-20T06:56:36.649Z,9.358532
2023-01-20T06:57:36.629Z,9.358628
2023-01-20T06:58:36.603Z,9.358625
2023-01-20T06:59:36.623Z,9.358671
2023-01-20T07:00:36.669Z,9.358651
2023-01-20T07:01:36.597Z,9.358551
2023-01-20T07:02:36.614Z,9.358546
2023-01-20T07:03:36.523Z,9.358600
2023-01-20T07:04:36.533Z,9.358597
2023-01-20T07:05:37.597Z,9.358564
2023-01-20T07:06:36.504Z,9.358590
2023-01-20T07:07:36.513Z,9.358549
2023-01-20T07:08:36.521Z,9.358583
2023-01-20T07:09:36.470Z,9.358606
2023-01-20T07:10:36.495Z,9.358630
2023-01-20T07:11:36.505Z,9.358609
2023-01-20T07:12:36.459Z,9.358594
2023-01-20T07:13:36.418Z,9.358583
2023-01-20T07:14:36.464Z,9.358599
2023-01-20T07:15:36.397Z,9.358593
2023-01-20T07:16:36.462Z,9.358582
2023-01-20T07:17:36.425Z,9.358549
2023-01-20T07:18:36.387Z,9.358562
2023-01-20T07:19:36.369Z,9.358548
2023-01-20T07:20:36.358Z,9.358505
2023-01-20T07:21:36.393Z,9.358518
2023-01-20T07:22:36.335Z,9.358525
2023-01-20T07:23:36.375Z,9.358596
2023-01-20T07:24:36.331Z,9.358674
2023-01-20T07:25:36.303Z,9.358637
2023-01-20T07:26:36.329Z,9.358558
2023-01-20T07:27:36.308Z,9.358571
2023-01-20T07:28:36.289Z,9.358553
2023-01-20T07:29:36.258Z,9.358574
2023-01-20T07:30:36.313Z,9.358561
2023-01-20T07:31:36.277Z,9.358491
2023-01-20T07:32:36.235Z,9.358548
2023-01-20T07:33:36.213Z,9.358574
2023-01-20T07:34:36.232Z,9.358580
2023-01-20T07:35:36.232Z,9.358533
2023-01-20T07:36:36.205Z,9.358506
2023-01-20T07:37:36.183Z,9.358561
2023-01-20T07:38:36.206Z,9.358598
2023-01-20T07:39:36.163Z,9.358624
2023-01-20T07:40:36.162Z,9.358603
2023-01-20T07:41:36.179Z,9.358603
2023-01-20T07:42:36.135Z,9.358587
2023-01-20T07:43:36.112Z,9.358515
2023-01-20T07:44:36.116Z,9.358515
2023-01-20T07:45:36.154Z,9.358491
2023-01-20T07:46:36.106Z,9.358498
2023-01-20T07:47:36.112Z,9.358534
2023-01-20T07:48:36.084Z,9.358585
2023-01-20T07:49:36.085Z,9.358602
2023-01-20T07:50:36.056Z,9.358579
2023-01-20T07:51:36.078Z,9.358581
2023-01-20T07:52:36.047Z,9.358679
2023-01-20T07:53:36.006Z,9.358632
2023-01-20T07:54:36.035Z,9.358569
2023-01-20T07:55:36.006Z,9.358557
2023-01-20T07:56:36.008Z,9.358551
2023-01-20T07:57:36.011Z,9.358553
2023-01-20T07:58:36.010Z,9.358524
2023-01-20T07:59:35.989Z,9.358667
2023-01-20T08:00:36.061Z,9.358633
2023-01-20T08:01:36.094Z,9.358612
2023-01-20T08:02:35.983Z,9.358665
2023-01-20T08:03:35.920Z,9.358613
2023-01-20T08:04:35.968Z,9.358580
2023-01-20T08:05:35.921Z,9.358513
2023-01-20T08:06:35.930Z,9.358537
2023-01-20T08:07:35.861Z,9.358526
2023-01-20T08:08:35.900Z,9.358598
2023-01-20T08:09:35.913Z,9.358647
2023-01-20T08:10:35.843Z,9.358635
2023-01-20T08:11:35.974Z,9.358640
2023-01-20T08:12:35.835Z,9.358605
2023-01-20T08:13:35.794Z,9.358592
2023-01-20T08:14:37.780Z,9.358665
2023-01-20T08:15:36.821Z,9.358642
2023-01-20T08:16:35.864Z,9.358575
2023-01-20T08:17:35.789Z,9.358573
2023-01-20T08:18:35.791Z,9.358583
2023-01-20T08:19:35.768Z,9.358643
2023-01-20T08:20:35.736Z,9.358626
2023-01-20T08:21:35.744Z,9.358580
2023-01-20T08:22:35.751Z,9.358547
2023-01-20T08:23:35.711Z,9.358632
2023-01-20T08:24:35.702Z,9.358525
2023-01-20T08:25:35.709Z,9.358463
2023-01-20T08:26:35.662Z,9.358485
2023-01-20T08:27:35.708Z,9.358549
2023-01-20T08:28:35.683Z,9.358543
2023-01-20T08:29:35.647Z,9.358603
2023-01-20T08:30:35.724Z,9.358650
2023-01-20T08:31:35.714Z,9.358671
2023-01-20T08:32:35.615Z,9.358636
2023-01-20T08:33:35.592Z,9.358610
2023-01-20T08:34:35.605Z,9.358563
2023-01-20T08:35:35.605Z,9.358572
2023-01-20T08:36:35.614Z,9.358597
2023-01-20T08:37:35.564Z,9.358562
2023-01-20T08:38:35.586Z,9.358594
2023-01-20T08:39:35.559Z,9.358563
2023-01-20T08:40:35.529Z,9.358548
2023-01-20T08:41:35.543Z,9.358568
2023-01-20T08:42:35.548Z,9.358536
2023-01-20T08:43:35.484Z,9.358556
2023-01-20T08:44:35.487Z,9.358621
2023-01-20T08:45:35.485Z,9.358546
2023-01-20T08:46:35.484Z,9.358526
2023-01-20T08:47:35.448Z,9.358554
2023-01-20T08:48:35.437Z,9.358491
2023-01-20T08:49:35.445Z,9.358551
2023-01-20T08:50:35.411Z,9.358559
2023-01-20T08:52:07.298Z,9.358521
2023-01-20T08:52:35.448Z,9.358478
2023-01-20T08:53:35.389Z,9.358555
2023-01-20T08:54:35.406Z,9.358531
2023-01-20T08:55:35.365Z,9.358566
2023-01-20T08:56:35.366Z,9.358585
2023-01-20T08:57:35.356Z,9.358579
2023-01-20T08:58:35.355Z,9.358579
2023-01-20T08:59:35.334Z,9.358560
2023-01-20T09:00:35.335Z,9.358594
2023-01-20T09:01:35.345Z,9.358636
2023-01-20T09:02:35.359Z,9.358648
2023-01-20T09:03:35.282Z,9.358592
2023-01-20T09:04:35.278Z,9.358585
2023-01-20T09:05:35.253Z,9.358595
2023-01-20T09:06:35.244Z,9.358596
2023-01-20T09:07:35.272Z,9.358570
2023-01-20T09:08:35.237Z,9.358568
2023-01-20T09:09:35.221Z,9.358576
2023-01-20T09:10:35.218Z,9.358552
2023-01-20T09:11:35.322Z,9.358573
2023-01-20T09:12:35.183Z,9.358617
2023-01-20T09:13:35.190Z,9.358546
2023-01-20T09:14:35.182Z,9.358559
2023-01-20T09:15:35.189Z,9.358534
2023-01-20T09:16:35.152Z,9.358510
2023-01-20T09:17:35.150Z,9.358494
2023-01-20T09:18:35.147Z,9.358568
2023-01-20T09:19:35.122Z,9.358554
2023-01-20T09:20:35.101Z,9.358513
2023-01-20T09:21:35.113Z,9.358528
2023-01-20T09:22:35.120Z,9.358566
2023-01-20T09:23:35.095Z,9.358557
2023-01-20T09:24:35.064Z,9.358537
2023-01-20T09:25:35.063Z,9.358533
2023-01-20T09:26:36.227Z,9.358517
2023-01-20T09:27:36.023Z,9.358511
2023-01-20T09:28:35.035Z,9.358541
2023-01-20T09:29:35.002Z,9.358633
2023-01-20T09:30:35.126Z,9.358639
2023-01-20T09:31:35.062Z,9.358589
2023-01-20T09:32:34.977Z,9.358585
2023-01-20T09:33:34.961Z,9.358558
2023-01-20T09:34:34.959Z,9.358578
2023-01-20T09:35:34.960Z,9.358579
2023-01-20T09:36:34.946Z,9.358611
2023-01-20T09:37:34.926Z,9.358588
2023-01-20T09:38:34.917Z,9.358579
2023-01-20T09:39:34.895Z,9.358526
2023-01-20T09:40:34.892Z,9.358510
2023-01-20T09:41:34.911Z,9.358481
2023-01-20T09:42:34.875Z,9.358471
2023-01-20T09:43:34.865Z,9.358499
2023-01-20T09:44:34.852Z,9.358550
2023-01-20T09:45:34.859Z,9.358598
2023-01-20T09:46:34.858Z,9.358546
2023-01-20T09:47:34.845Z,9.358503
2023-01-20T09:48:34.829Z,9.358498
2023-01-20T09:49:34.790Z,9.358433
2023-01-20T09:50:34.782Z,9.358448
2023-01-20T09:51:34.823Z,9.358472
2023-01-20T09:52:34.761Z,9.358443
2023-01-20T09:53:34.797Z,9.358455
2023-01-20T09:54:34.753Z,9.358517
2023-01-20T09:55:34.728Z,9.358578
2023-01-20T09:56:35.712Z,9.358569
2023-01-20T09:57:34.710Z,9.358562
2023-01-20T09:58:34.709Z,9.358553
2023-01-20T09:59:34.699Z,9.358498
2023-01-20T10:00:34.676Z,9.358493
2023-01-20T10:01:34.725Z,9.358518
2023-01-20T10:02:34.664Z,9.358514
2023-01-20T10:03:34.656Z,9.358544
2023-01-20T10:04:34.636Z,9.358561
2023-01-20T10:05:34.653Z,9.358578
2023-01-20T10:06:34.604Z,9.358547
2023-01-20T10:07:34.610Z,9.358585
2023-01-20T10:08:34.596Z,9.358582
2023-01-20T10:09:34.592Z,9.358550
2023-01-20T10:10:34.563Z,9.358552
2023-01-20T10:11:34.604Z,9.358592
2023-01-20T10:12:34.537Z,9.358528
2023-01-20T10:13:34.557Z,9.358479
2023-01-20T10:14:34.521Z,9.358512
2023-01-20T10:15:34.527Z,9.358514
2023-01-20T10:16:34.509Z,9.358460
2023-01-20T10:17:34.508Z,9.358509
2023-01-20T10:18:34.490Z,9.358479
2023-01-20T10:19:34.511Z,9.358485
2023-01-20T10:20:34.467Z,9.358501
2023-01-20T10:21:34.459Z,9.358546
2023-01-20T10:22:34.438Z,9.358593
2023-01-20T10:23:34.437Z,9.358586
2023-01-20T10:24:34.426Z,9.358541
2023-01-20T10:25:37.013Z,9.358508
2023-01-20T10:26:34.425Z,9.358588
2023-01-20T10:27:34.399Z,9.358644
2023-01-20T10:28:34.388Z,9.358628
2023-01-20T10:29:34.382Z,9.358599
2023-01-20T10:30:34.451Z,9.358564
2023-01-20T10:31:34.382Z,9.358506
2023-01-20T10:32:34.357Z,9.358569
2023-01-20T10:33:34.332Z,9.358566
2023-01-20T10:34:34.328Z,9.358578
2023-01-20T10:35:34.310Z,9.358555
2023-01-20T10:36:34.289Z,9.358537
2023-01-20T10:37:34.291Z,9.358530
2023-01-20T10:38:34.274Z,9.358597
2023-01-20T10:39:34.255Z,9.358597
2023-01-20T10:40:35.436Z,9.358590
2023-01-20T10:41:35.311Z,9.358599
2023-01-20T10:42:34.225Z,9.358540
2023-01-20T10:43:34.228Z,9.358505
2023-01-20T10:44:34.220Z,9.358492
2023-01-20T10:45:34.201Z,9.358494
2023-01-20T10:46:34.203Z,9.358496
2023-01-20T10:47:34.170Z,9.358488
2023-01-20T10:48:34.162Z,9.358472
2023-01-20T10:49:34.158Z,9.358446
2023-01-20T10:50:34.178Z,9.358458
2023-01-20T10:51:34.123Z,9.358631
2023-01-20T10:52:34.132Z,9.358607
2023-01-20T10:53:34.118Z,9.358524
2023-01-20T10:54:34.099Z,9.358504
2023-01-20T10:55:34.082Z,9.358487
2023-01-20T10:56:34.084Z,9.358533
2023-01-20T10:57:34.103Z,9.358568
2023-01-20T10:58:34.064Z,9.358598
2023-01-20T10:59:34.044Z,9.358545
2023-01-20T11:00:34.030Z,9.358533
2023-01-20T11:01:34.060Z,9.358537
2023-01-20T11:02:34.123Z,9.358515
2023-01-20T11:03:33.996Z,9.358500
2023-01-20T11:04:34.004Z,9.358469
2023-01-20T11:05:33.986Z,9.358480
2023-01-20T11:06:33.968Z,9.358505
2023-01-20T11:07:33.962Z,9.358508
2023-01-20T11:08:33.945Z,9.358546
2023-01-20T11:09:34.126Z,9.358558
2023-01-20T11:10:33.935Z,9.358560
2023-01-20T11:11:33.926Z,9.358514
2023-01-20T11:12:33.941Z,9.358507
2023-01-20T11:13:33.911Z,9.358514
2023-01-20T11:14:33.914Z,9.358516
2023-01-20T11:15:33.879Z,9.358459
2023-01-20T11:16:33.919Z,9.358474
2023-01-20T11:17:33.867Z,9.358504
2023-01-20T11:18:33.860Z,9.358500
2023-01-20T11:19:33.868Z,9.358483
2023-01-20T11:20:33.830Z,9.358430
2023-01-20T11:21:33.856Z,9.358439
2023-01-20T11:22:33.836Z,9.358418
2023-01-20T11:23:33.795Z,9.358366
2023-01-20T11:24:33.809Z,9.358399
2023-01-20T11:25:33.796Z,9.358391
2023-01-20T11:26:33.925Z,9.358393
2023-01-20T11:27:33.760Z,9.358369
2023-01-20T11:28:33.759Z,9.358374
2023-01-20T11:29:33.777Z,9.358387
2023-01-20T11:30:33.750Z,9.358411
2023-01-20T11:31:33.737Z,9.358416
2023-01-20T11:32:33.712Z,9.358418
2023-01-20T11:33:33.715Z,9.358529
2023-01-20T11:34:33.688Z,9.358496
2023-01-20T11:35:33.668Z,9.358447
2023-01-20T11:36:33.682Z,9.358429
2023-01-20T11:37:33.660Z,9.358432
2023-01-20T11:38:33.648Z,9.358482
2023-01-20T11:39:33.635Z,9.358399
2023-01-20T11:40:33.627Z,9.358474
2023-01-20T11:41:33.632Z,9.358587
2023-01-20T11:42:35.064Z,9.358589
2023-01-20T11:43:33.589Z,9.358612
2023-01-20T11:44:33.596Z,9.358592